createdAt,value
2019-04-05T00:00:25.998Z,4.03
2019-04-05T00:05:31.097Z,3.53
2019-04-05T00:10:35.621Z,4.77
2019-04-05T00:15:40.478Z,4.07
2019-04-05T00:20:45.006Z,2.77
2019-04-05T00:25:50.376Z,4.53
2019-04-05T00:30:54.936Z,4.43
2019-04-05T00:36:00.004Z,3.90
2019-04-05T00:41:04.539Z,3.90
2019-04-05T00:46:09.849Z,4.13
2019-04-05T00:51:14.389Z,5.13
2019-04-05T00:56:19.892Z,3.57
2019-04-05T01:01:24.440Z,3.97
2019-04-05T01:06:29.446Z,3.73
2019-04-05T01:11:34.060Z,3.70
2019-04-05T01:16:39.482Z,4.57
2019-04-05T01:21:45.650Z,4.73
2019-04-05T01:26:50.686Z,3.57
2019-04-05T01:31:55.264Z,5.77
2019-04-05T01:37:00.713Z,4.93
2019-04-05T01:42:05.258Z,5.17
2019-04-05T01:47:09.874Z,5.30
2019-04-05T01:52:14.429Z,5.10
2019-04-05T01:57:19.706Z,5.43
2019-04-05T02:02:24.483Z,4.97
2019-04-05T02:07:29.288Z,4.83
2019-04-05T02:12:36.058Z,4.03
2019-04-05T02:17:40.941Z,7.47
2019-04-05T02:22:45.470Z,5.47
2019-04-05T02:27:50.197Z,6.77
2019-04-05T02:32:54.987Z,6.47
2019-04-05T02:38:00.633Z,8.17
2019-04-05T02:43:05.232Z,8.90
2019-04-05T02:48:11.135Z,5.37
2019-04-05T02:53:15.747Z,6.47
2019-04-05T02:58:21.633Z,5.20
2019-04-05T03:03:26.191Z,7.80
2019-04-05T03:08:30.735Z,5.53
2019-04-05T03:13:36.285Z,6.33
2019-04-05T03:18:42.542Z,5.33
2019-04-05T03:23:47.153Z,6.57
2019-04-05T03:28:52.442Z,6.10
2019-04-05T03:33:57.061Z,8.50
2019-04-05T03:39:01.928Z,7.17
2019-04-05T03:44:07.141Z,6.43
2019-04-05T03:49:11.729Z,5.87
2019-04-05T03:54:16.249Z,6.77
2019-04-05T03:59:20.809Z,7.97
2019-04-05T04:04:25.430Z,6.90
2019-04-05T04:09:29.971Z,6.47
2019-04-05T04:14:34.524Z,6.77
2019-04-05T04:19:39.059Z,7.83
2019-04-05T04:24:43.589Z,7.70
2019-04-05T04:29:48.115Z,8.10
2019-04-05T04:34:52.693Z,6.30
2019-04-05T04:39:57.349Z,7.70
2019-04-05T04:45:11.816Z,6.43
2019-04-05T04:50:08.417Z,7.93
2019-04-05T04:55:13.006Z,5.03
2019-04-05T05:00:17.567Z,8.80
2019-04-05T05:05:22.174Z,7.00
2019-04-05T05:10:26.786Z,6.00
2019-04-05T05:15:31.483Z,10.07
2019-04-05T05:20:36.062Z,8.30
2019-04-05T05:25:40.614Z,11.00
2019-04-05T05:30:45.158Z,7.70
2019-04-05T05:35:50.689Z,10.13
2019-04-05T05:40:55.234Z,7.30
2019-04-05T05:45:59.858Z,10.83
2019-04-05T05:51:04.455Z,11.03
2019-04-05T05:56:09.000Z,7.87
2019-04-05T06:01:13.545Z,9.87
2019-04-05T06:06:18.096Z,9.63
2019-04-05T06:11:22.806Z,7.77
2019-04-05T06:16:27.324Z,9.70
2019-04-05T06:21:32.023Z,8.33
2019-04-05T06:26:36.584Z,10.20
2019-04-05T06:31:41.157Z,13.33
2019-04-05T06:36:45.709Z,10.43
2019-04-05T06:41:50.277Z,11.70
2019-04-05T06:46:54.842Z,10.73
2019-04-05T06:51:59.396Z,13.73
2019-04-05T06:57:03.960Z,11.80
2019-04-05T07:02:08.522Z,6.77
2019-04-05T07:07:13.078Z,12.63
2019-04-05T07:12:20.423Z,12.30
2019-04-05T07:17:24.162Z,9.33
2019-04-05T07:22:38.523Z,8.03
2019-04-05T07:27:35.162Z,7.30
2019-04-05T07:32:39.757Z,9.03
2019-04-05T07:37:44.314Z,13.07
2019-04-05T07:42:48.970Z,15.00
2019-04-05T07:47:53.606Z,9.43
2019-04-05T07:52:58.135Z,10.93
2019-04-05T07:58:03.575Z,10.53
2019-04-05T08:03:08.118Z,10.23
2019-04-05T08:08:15.177Z,14.20
2019-04-05T08:13:19.850Z,12.10
2019-04-05T08:18:24.441Z,8.30
2019-04-05T08:23:29.000Z,9.07
2019-04-05T08:28:34.412Z,8.73
2019-04-05T08:33:38.960Z,12.57
2019-04-05T08:38:44.551Z,8.63
2019-04-05T08:43:50.733Z,9.20
2019-04-05T08:48:55.359Z,15.43
2019-04-05T08:54:00.006Z,10.77
2019-04-05T08:59:04.787Z,7.43
2019-04-05T09:04:09.372Z,14.13
2019-04-05T09:09:14.711Z,13.00
2019-04-05T09:14:20.951Z,14.87
2019-04-05T09:19:26.693Z,16.00
2019-04-05T09:24:31.322Z,14.67
2019-04-05T09:29:36.537Z,15.33
2019-04-05T09:34:41.217Z,14.33
2019-04-05T09:39:46.696Z,14.07
2019-04-05T09:44:51.250Z,14.10
2019-04-05T09:49:56.202Z,16.73
2019-04-05T09:55:00.935Z,17.07
2019-04-05T10:00:06.755Z,14.70
2019-04-05T10:05:12.338Z,15.30
2019-04-05T10:10:17.217Z,16.97
2019-04-05T10:15:24.542Z,17.43
2019-04-05T10:20:29.489Z,18.60
2019-04-05T10:25:34.461Z,17.80
2019-04-05T10:30:40.102Z,16.37
2019-04-05T10:35:44.797Z,19.47
2019-04-05T10:40:49.818Z,19.73
2019-04-05T10:45:54.597Z,20.77
2019-04-05T10:50:59.542Z,12.43
2019-04-05T10:56:04.159Z,18.13
2019-04-05T11:01:08.904Z,13.90
2019-04-05T11:06:13.607Z,18.57
2019-04-05T11:11:18.872Z,22.27
2019-04-05T11:16:23.499Z,15.87
2019-04-05T11:21:28.040Z,16.57
2019-04-05T11:26:32.695Z,16.23
2019-04-05T11:31:37.867Z,19.43
2019-04-05T11:36:44.146Z,16.93
2019-04-05T11:41:49.010Z,9.70
2019-04-05T11:46:55.605Z,21.60
2019-04-05T11:52:01.194Z,17.23
2019-04-05T11:57:05.761Z,17.53
2019-04-05T12:02:27.165Z,15.30
2019-04-05T12:07:31.945Z,17.97
2019-04-05T12:12:38.422Z,21.03
2019-04-05T12:17:42.974Z,18.60
2019-04-05T12:22:47.658Z,21.30
2019-04-05T12:28:00.317Z,19.27
2019-04-05T12:32:59.044Z,13.63
2019-04-05T12:38:06.965Z,12.33
2019-04-05T12:43:13.530Z,17.73
2019-04-05T12:48:18.896Z,17.60
2019-04-05T12:53:26.900Z,21.27
2019-04-05T12:58:32.699Z,18.83
2019-04-05T13:03:41.108Z,18.03
2019-04-05T13:08:45.803Z,19.30
2019-04-05T13:13:57.256Z,18.27
2019-04-05T13:19:03.155Z,16.90
2019-04-05T13:24:10.926Z,16.67
2019-04-05T13:29:17.611Z,16.53
2019-04-05T13:34:26.021Z,18.57
2019-04-05T13:39:34.254Z,16.13
2019-04-05T13:44:39.546Z,14.20
2019-04-05T13:49:44.162Z,15.37
2019-04-05T13:54:49.542Z,15.17
2019-04-05T13:59:54.125Z,16.83
2019-04-05T14:05:00.066Z,13.27
2019-04-05T14:10:06.037Z,13.90
2019-04-05T14:15:12.181Z,14.43
2019-04-05T14:20:19.578Z,14.03
2019-04-05T14:25:25.685Z,13.93
2019-04-05T14:30:32.902Z,16.67
2019-04-05T14:35:37.621Z,9.63
2019-04-05T14:40:42.177Z,10.90
2019-04-05T14:45:48.234Z,12.50
2019-04-05T14:50:52.828Z,15.57
2019-04-05T14:55:59.293Z,11.30
2019-04-05T15:01:04.430Z,12.90
2019-04-05T15:06:09.706Z,14.20
2019-04-05T15:11:15.463Z,11.77
2019-04-05T15:16:23.271Z,17.17
2019-04-05T15:21:26.524Z,13.23
2019-04-05T15:26:31.959Z,14.50
2019-04-05T15:31:36.617Z,14.20
2019-04-05T15:36:41.680Z,12.90
2019-04-05T15:41:46.359Z,16.93
2019-04-05T15:46:51.145Z,14.73
2019-04-05T15:51:58.735Z,16.10
2019-04-05T15:57:04.379Z,11.73
2019-04-05T16:02:09.163Z,15.53
2019-04-05T16:07:14.389Z,11.23
2019-04-05T16:12:18.919Z,14.30
2019-04-05T16:17:24.149Z,13.07
2019-04-05T16:22:31.402Z,14.83
2019-04-05T16:27:35.644Z,16.67
2019-04-05T16:32:40.712Z,19.17
2019-04-05T16:37:46.195Z,16.07
2019-04-05T16:43:01.696Z,12.07
2019-04-05T16:47:57.570Z,15.57
2019-04-05T16:53:02.122Z,13.13
2019-04-05T16:58:06.902Z,18.10
2019-04-05T17:03:11.536Z,14.40
2019-04-05T17:08:16.376Z,14.17
2019-04-05T17:13:20.992Z,18.53
2019-04-05T17:18:26.293Z,13.03
2019-04-05T17:23:33.184Z,12.30
2019-04-05T17:28:37.542Z,13.80
2019-04-05T17:33:42.103Z,13.90
2019-04-05T17:38:48.638Z,11.30
2019-04-05T17:43:53.538Z,13.57
2019-04-05T17:48:58.522Z,12.93
2019-04-05T17:54:03.714Z,14.47
2019-04-05T17:59:08.768Z,18.07
2019-04-05T18:04:13.632Z,11.37
2019-04-05T18:09:18.343Z,17.80
2019-04-05T18:14:22.933Z,12.30
2019-04-05T18:19:29.560Z,38.67
2019-04-05T18:24:34.279Z,62.40
2019-04-05T18:29:40.102Z,78.70
2019-04-05T18:34:45.276Z,48.97
2019-04-05T18:39:52.755Z,66.53
2019-04-05T18:44:57.334Z,71.10
2019-04-05T18:50:03.646Z,69.87
2019-04-05T18:55:08.280Z,74.53
2019-04-05T19:00:12.928Z,66.77
2019-04-05T19:05:17.545Z,68.37
2019-04-05T19:10:36.221Z,73.13
2019-04-05T19:15:29.459Z,74.03
2019-04-05T19:20:36.828Z,75.97
2019-04-05T19:25:40.385Z,73.63
2019-04-05T19:51:15.578Z,65.77
2019-04-05T19:56:20.182Z,72.37
2019-04-05T20:01:26.097Z,69.10
2019-04-05T20:06:30.737Z,71.93
2019-04-05T20:11:37.019Z,62.77
2019-04-05T20:16:41.569Z,65.30
2019-04-05T20:21:46.234Z,70.17
2019-04-05T20:26:50.984Z,65.40
2019-04-05T20:31:56.155Z,59.50
2019-04-05T20:37:00.709Z,46.57
2019-04-05T20:42:06.883Z,41.00
2019-04-05T20:47:11.448Z,53.63
2019-04-05T20:52:16.012Z,43.13
2019-04-05T20:57:20.639Z,44.20
2019-04-05T21:02:25.282Z,47.60
2019-04-05T21:07:29.888Z,28.60
2019-04-05T21:12:34.541Z,27.40
2019-04-05T21:17:39.117Z,32.93
2019-04-05T21:22:43.656Z,31.10
2019-04-05T21:27:48.579Z,26.57
2019-04-05T21:32:53.128Z,23.30
2019-04-05T21:37:57.681Z,58.03
2019-04-05T21:43:02.246Z,57.03
2019-04-05T21:48:06.801Z,75.37
2019-04-05T21:53:11.360Z,63.50
2019-04-05T21:58:16.022Z,39.87
2019-04-05T22:03:21.806Z,42.17
2019-04-05T22:08:26.449Z,43.23
2019-04-05T22:13:32.457Z,41.10
2019-04-05T22:18:37.090Z,56.37
2019-04-05T22:23:42.636Z,36.67
2019-04-05T22:28:47.175Z,43.97
2019-04-05T22:33:52.869Z,45.33
2019-04-05T22:38:57.536Z,46.87
2019-04-05T22:44:02.252Z,42.10
2019-04-05T22:49:06.805Z,43.93
2019-04-05T22:54:12.682Z,52.03
2019-04-05T22:59:17.228Z,52.57
2019-04-05T23:04:23.032Z,44.77
2019-04-05T23:09:30.682Z,45.17
2019-04-05T23:14:36.786Z,42.33
2019-04-05T23:19:41.404Z,48.87
2019-04-05T23:24:46.196Z,41.80
2019-04-05T23:29:50.748Z,45.47
2019-04-05T23:34:56.455Z,42.60
2019-04-05T23:40:01.031Z,39.90
2019-04-05T23:45:06.729Z,44.77
2019-04-05T23:50:11.280Z,50.60
2019-04-05T23:55:15.868Z,44.60
